sensor_id;sensor_type;location;lat;lon;timestamp;temperature;humidity
23633;DHT22;11993;48.748;9.166;2023-07-13T00:00:19;21.10;55.20
23633;DHT22;11993;48.748;9.166;2023-07-13T00:02:45;21.10;55.70
23633;DHT22;11993;48.748;9.166;2023-07-13T00:05:10;21.00;55.70
23633;DHT22;11993;48.748;9.166;2023-07-13T00:07:36;20.90;55.50
23633;DHT22;11993;48.748;9.166;2023-07-13T00:10:03;20.70;56.10
23633;DHT22;11993;48.748;9.166;2023-07-13T00:12:32;20.70;56.10
23633;DHT22;11993;48.748;9.166;2023-07-13T00:14:59;20.70;56.10
23633;DHT22;11993;48.748;9.166;2023-07-13T00:17:26;20.60;56.60
23633;DHT22;11993;48.748;9.166;2023-07-13T00:19:52;20.60;56.40
23633;DHT22;11993;48.748;9.166;2023-07-13T00:22:18;20.60;56.10
23633;DHT22;11993;48.748;9.166;2023-07-13T00:24:44;20.50;55.80
23633;DHT22;11993;48.748;9.166;2023-07-13T00:27:10;20.60;55.90
23633;DHT22;11993;48.748;9.166;2023-07-13T00:29:37;20.50;55.70
23633;DHT22;11993;48.748;9.166;2023-07-13T00:32:04;20.50;55.00
23633;DHT22;11993;48.748;9.166;2023-07-13T00:34:30;20.50;55.40
23633;DHT22;11993;48.748;9.166;2023-07-13T00:36:56;20.40;55.10
23633;DHT22;11993;48.748;9.166;2023-07-13T00:39:21;20.50;55.00
23633;DHT22;11993;48.748;9.166;2023-07-13T00:41:51;20.50;54.60
23633;DHT22;11993;48.748;9.166;2023-07-13T00:44:17;20.20;54.50
23633;DHT22;11993;48.748;9.166;2023-07-13T00:46:43;20.40;54.50
23633;DHT22;11993;48.748;9.166;2023-07-13T00:49:12;20.40;54.50
23633;DHT22;11993;48.748;9.166;2023-07-13T00:51:47;20.30;55.10
23633;DHT22;11993;48.748;9.166;2023-07-13T00:54:41;20.40;54.40
23633;DHT22;11993;48.748;9.166;2023-07-13T00:57:09;20.30;54.40
23633;DHT22;11993;48.748;9.166;2023-07-13T00:59:36;20.30;54.00
23633;DHT22;11993;48.748;9.166;2023-07-13T01:02:05;20.40;54.10
23633;DHT22;11993;48.748;9.166;2023-07-13T01:04:30;20.40;53.80
23633;DHT22;11993;48.748;9.166;2023-07-13T01:06:57;20.50;53.00
23633;DHT22;11993;48.748;9.166;2023-07-13T01:09:23;20.50;53.10
23633;DHT22;11993;48.748;9.166;2023-07-13T01:11:49;20.50;53.00
23633;DHT22;11993;48.748;9.166;2023-07-13T01:14:15;20.40;54.10
23633;DHT22;11993;48.748;9.166;2023-07-13T01:16:46;20.40;54.00
23633;DHT22;11993;48.748;9.166;2023-07-13T01:19:32;20.60;53.90
23633;DHT22;11993;48.748;9.166;2023-07-13T01:22:02;20.60;53.40
23633;DHT22;11993;48.748;9.166;2023-07-13T01:24:27;20.60;53.40
23633;DHT22;11993;48.748;9.166;2023-07-13T01:26:53;20.60;53.10
23633;DHT22;11993;48.748;9.166;2023-07-13T01:29:18;20.60;52.70
23633;DHT22;11993;48.748;9.166;2023-07-13T01:31:44;20.50;52.40
23633;DHT22;11993;48.748;9.166;2023-07-13T01:34:10;20.60;52.60
23633;DHT22;11993;48.748;9.166;2023-07-13T01:36:35;20.60;52.70
23633;DHT22;11993;48.748;9.166;2023-07-13T01:39:02;20.60;52.90
23633;DHT22;11993;48.748;9.166;2023-07-13T01:41:27;20.50;52.80
23633;DHT22;11993;48.748;9.166;2023-07-13T01:43:53;20.50;52.90
23633;DHT22;11993;48.748;9.166;2023-07-13T01:46:18;20.50;53.00
23633;DHT22;11993;48.748;9.166;2023-07-13T01:48:44;20.50;53.00
23633;DHT22;11993;48.748;9.166;2023-07-13T01:51:09;20.50;53.30
23633;DHT22;11993;48.748;9.166;2023-07-13T01:53:35;20.50;53.10
23633;DHT22;11993;48.748;9.166;2023-07-13T01:56:00;20.40;53.20
23633;DHT22;11993;48.748;9.166;2023-07-13T01:58:26;20.20;53.30
23633;DHT22;11993;48.748;9.166;2023-07-13T02:00:51;20.20;53.50
23633;DHT22;11993;48.748;9.166;2023-07-13T02:03:17;20.20;53.50
23633;DHT22;11993;48.748;9.166;2023-07-13T02:05:44;20.20;53.70
23633;DHT22;11993;48.748;9.166;2023-07-13T02:08:10;20.20;53.40
23633;DHT22;11993;48.748;9.166;2023-07-13T02:10:36;20.10;54.00
23633;DHT22;11993;48.748;9.166;2023-07-13T02:13:02;20.00;54.60
23633;DHT22;11993;48.748;9.166;2023-07-13T02:15:27;19.90;55.00
23633;DHT22;11993;48.748;9.166;2023-07-13T02:17:53;19.90;54.70
23633;DHT22;11993;48.748;9.166;2023-07-13T02:20:18;19.90;54.70
23633;DHT22;11993;48.748;9.166;2023-07-13T02:22:44;19.90;54.70
23633;DHT22;11993;48.748;9.166;2023-07-13T02:25:09;19.90;54.70
23633;DHT22;11993;48.748;9.166;2023-07-13T02:27:35;19.80;54.70
23633;DHT22;11993;48.748;9.166;2023-07-13T02:30:00;19.80;54.90
23633;DHT22;11993;48.748;9.166;2023-07-13T02:32:26;19.80;55.00
23633;DHT22;11993;48.748;9.166;2023-07-13T02:34:52;19.70;55.90
23633;DHT22;11993;48.748;9.166;2023-07-13T02:37:18;19.60;56.00
23633;DHT22;11993;48.748;9.166;2023-07-13T02:39:43;19.50;57.00
23633;DHT22;11993;48.748;9.166;2023-07-13T02:42:09;19.50;57.30
23633;DHT22;11993;48.748;9.166;2023-07-13T02:44:34;19.50;57.70
23633;DHT22;11993;48.748;9.166;2023-07-13T02:47:00;19.50;57.80
23633;DHT22;11993;48.748;9.166;2023-07-13T02:49:25;19.50;58.10
23633;DHT22;11993;48.748;9.166;2023-07-13T02:51:51;19.50;57.90
23633;DHT22;11993;48.748;9.166;2023-07-13T02:54:17;19.60;56.90
23633;DHT22;11993;48.748;9.166;2023-07-13T02:56:42;19.60;56.80
23633;DHT22;11993;48.748;9.166;2023-07-13T02:59:09;19.50;57.40
23633;DHT22;11993;48.748;9.166;2023-07-13T03:01:35;19.50;57.40
23633;DHT22;11993;48.748;9.166;2023-07-13T03:04:01;19.50;57.40
23633;DHT22;11993;48.748;9.166;2023-07-13T03:06:26;19.40;58.20
23633;DHT22;11993;48.748;9.166;2023-07-13T03:08:55;19.30;58.50
23633;DHT22;11993;48.748;9.166;2023-07-13T03:11:21;19.20;58.90
23633;DHT22;11993;48.748;9.166;2023-07-13T03:13:47;19.10;59.00
23633;DHT22;11993;48.748;9.166;2023-07-13T03:16:13;19.10;59.30
23633;DHT22;11993;48.748;9.166;2023-07-13T03:18:40;19.10;59.10
23633;DHT22;11993;48.748;9.166;2023-07-13T03:21:06;19.10;58.90
23633;DHT22;11993;48.748;9.166;2023-07-13T03:23:32;19.20;58.40
23633;DHT22;11993;48.748;9.166;2023-07-13T03:26:18;19.00;59.40
23633;DHT22;11993;48.748;9.166;2023-07-13T03:28:44;19.10;59.20
23633;DHT22;11993;48.748;9.166;2023-07-13T03:31:13;19.10;59.20
23633;DHT22;11993;48.748;9.166;2023-07-13T03:33:39;19.10;59.30
23633;DHT22;11993;48.748;9.166;2023-07-13T03:36:06;19.20;58.90
23633;DHT22;11993;48.748;9.166;2023-07-13T03:38:34;19.10;58.40
23633;DHT22;11993;48.748;9.166;2023-07-13T03:41:00;19.10;58.70
23633;DHT22;11993;48.748;9.166;2023-07-13T03:43:25;19.20;58.90
23633;DHT22;11993;48.748;9.166;2023-07-13T03:45:51;19.20;58.30
23633;DHT22;11993;48.748;9.166;2023-07-13T03:48:17;19.30;58.50
23633;DHT22;11993;48.748;9.166;2023-07-13T03:50:42;19.40;58.00
23633;DHT22;11993;48.748;9.166;2023-07-13T03:53:08;19.50;58.10
23633;DHT22;11993;48.748;9.166;2023-07-13T03:55:33;19.50;56.90
23633;DHT22;11993;48.748;9.166;2023-07-13T03:58:29;19.50;55.70
23633;DHT22;11993;48.748;9.166;2023-07-13T04:00:56;19.60;55.30
23633;DHT22;11993;48.748;9.166;2023-07-13T04:03:22;19.60;55.40
23633;DHT22;11993;48.748;9.166;2023-07-13T04:05:48;19.60;55.10
23633;DHT22;11993;48.748;9.166;2023-07-13T04:08:14;19.60;54.90
23633;DHT22;11993;48.748;9.166;2023-07-13T04:10:39;19.80;54.70
23633;DHT22;11993;48.748;9.166;2023-07-13T04:13:05;19.90;54.70
23633;DHT22;11993;48.748;9.166;2023-07-13T04:15:32;19.90;54.50
23633;DHT22;11993;48.748;9.166;2023-07-13T04:17:58;19.90;54.80
23633;DHT22;11993;48.748;9.166;2023-07-13T04:20:27;20.00;54.70
23633;DHT22;11993;48.748;9.166;2023-07-13T04:22:52;20.00;54.60
23633;DHT22;11993;48.748;9.166;2023-07-13T04:25:21;20.00;54.50
23633;DHT22;11993;48.748;9.166;2023-07-13T04:27:47;20.00;54.40
23633;DHT22;11993;48.748;9.166;2023-07-13T04:30:13;20.00;54.30
23633;DHT22;11993;48.748;9.166;2023-07-13T04:32:38;20.00;53.90
23633;DHT22;11993;48.748;9.166;2023-07-13T04:35:04;19.90;53.60
23633;DHT22;11993;48.748;9.166;2023-07-13T04:37:30;19.90;53.90
23633;DHT22;11993;48.748;9.166;2023-07-13T04:39:55;19.70;54.50
23633;DHT22;11993;48.748;9.166;2023-07-13T04:42:21;19.70;54.50
23633;DHT22;11993;48.748;9.166;2023-07-13T04:44:51;19.70;54.50
23633;DHT22;11993;48.748;9.166;2023-07-13T04:47:17;19.70;54.30
23633;DHT22;11993;48.748;9.166;2023-07-13T04:49:44;19.80;53.70
23633;DHT22;11993;48.748;9.166;2023-07-13T04:52:10;19.80;53.40
23633;DHT22;11993;48.748;9.166;2023-07-13T04:54:37;19.90;53.60
23633;DHT22;11993;48.748;9.166;2023-07-13T04:57:03;19.90;53.40
23633;DHT22;11993;48.748;9.166;2023-07-13T04:59:32;20.00;53.00
23633;DHT22;11993;48.748;9.166;2023-07-13T05:01:58;20.00;53.20
23633;DHT22;11993;48.748;9.166;2023-07-13T05:04:23;19.90;52.90
23633;DHT22;11993;48.748;9.166;2023-07-13T05:06:49;20.00;53.20
23633;DHT22;11993;48.748;9.166;2023-07-13T05:09:14;20.10;53.10
23633;DHT22;11993;48.748;9.166;2023-07-13T05:11:40;20.10;53.30
23633;DHT22;11993;48.748;9.166;2023-07-13T05:14:05;20.00;53.20
23633;DHT22;11993;48.748;9.166;2023-07-13T05:16:31;20.00;53.20
23633;DHT22;11993;48.748;9.166;2023-07-13T05:18:57;20.20;53.00
23633;DHT22;11993;48.748;9.166;2023-07-13T05:21:23;20.30;52.10
23633;DHT22;11993;48.748;9.166;2023-07-13T05:23:49;20.30;52.80
23633;DHT22;11993;48.748;9.166;2023-07-13T05:26:15;20.50;52.30
23633;DHT22;11993;48.748;9.166;2023-07-13T05:28:40;20.50;52.20
23633;DHT22;11993;48.748;9.166;2023-07-13T05:31:08;20.50;52.60
23633;DHT22;11993;48.748;9.166;2023-07-13T05:33:34;20.60;52.20
23633;DHT22;11993;48.748;9.166;2023-07-13T05:36:00;20.60;52.60
23633;DHT22;11993;48.748;9.166;2023-07-13T05:38:26;20.60;52.80
23633;DHT22;11993;48.748;9.166;2023-07-13T05:40:54;20.60;53.00
23633;DHT22;11993;48.748;9.166;2023-07-13T05:43:20;20.60;53.00
23633;DHT22;11993;48.748;9.166;2023-07-13T05:45:46;20.60;52.70
23633;DHT22;11993;48.748;9.166;2023-07-13T05:48:11;20.60;53.30
23633;DHT22;11993;48.748;9.166;2023-07-13T05:50:37;20.60;52.90
23633;DHT22;11993;48.748;9.166;2023-07-13T05:53:02;20.50;53.60
23633;DHT22;11993;48.748;9.166;2023-07-13T05:55:28;20.50;53.60
23633;DHT22;11993;48.748;9.166;2023-07-13T05:57:54;20.40;52.50
23633;DHT22;11993;48.748;9.166;2023-07-13T06:00:19;20.40;52.50
23633;DHT22;11993;48.748;9.166;2023-07-13T06:02:45;20.40;52.60
23633;DHT22;11993;48.748;9.166;2023-07-13T06:05:11;20.50;53.10
23633;DHT22;11993;48.748;9.166;2023-07-13T06:07:37;20.50;52.90
23633;DHT22;11993;48.748;9.166;2023-07-13T06:10:03;20.60;52.50
23633;DHT22;11993;48.748;9.166;2023-07-13T06:12:29;20.70;52.10
23633;DHT22;11993;48.748;9.166;2023-07-13T06:14:54;20.80;51.50
23633;DHT22;11993;48.748;9.166;2023-07-13T06:17:20;21.10;50.70
23633;DHT22;11993;48.748;9.166;2023-07-13T06:19:45;21.10;51.50
23633;DHT22;11993;48.748;9.166;2023-07-13T06:22:11;21.20;51.20
23633;DHT22;11993;48.748;9.166;2023-07-13T06:24:36;21.50;49.70
23633;DHT22;11993;48.748;9.166;2023-07-13T06:27:02;21.60;49.80
23633;DHT22;11993;48.748;9.166;2023-07-13T06:29:28;21.60;49.60
23633;DHT22;11993;48.748;9.166;2023-07-13T06:31:53;21.70;49.00
23633;DHT22;11993;48.748;9.166;2023-07-13T06:34:19;21.90;49.60
23633;DHT22;11993;48.748;9.166;2023-07-13T06:36:45;22.10;49.00
23633;DHT22;11993;48.748;9.166;2023-07-13T06:39:10;22.10;47.40
23633;DHT22;11993;48.748;9.166;2023-07-13T06:41:36;22.10;48.50
23633;DHT22;11993;48.748;9.166;2023-07-13T06:44:03;22.40;47.20
23633;DHT22;11993;48.748;9.166;2023-07-13T06:46:29;22.80;46.20
23633;DHT22;11993;48.748;9.166;2023-07-13T06:48:56;23.10;47.00
23633;DHT22;11993;48.748;9.166;2023-07-13T06:51:21;22.70;45.80
23633;DHT22;11993;48.748;9.166;2023-07-13T06:53:47;22.70;45.80
23633;DHT22;11993;48.748;9.166;2023-07-13T06:56:12;22.70;45.50
23633;DHT22;11993;48.748;9.166;2023-07-13T06:58:38;22.50;46.70
23633;DHT22;11993;48.748;9.166;2023-07-13T07:01:04;22.60;46.20
23633;DHT22;11993;48.748;9.166;2023-07-13T07:03:30;23.00;46.40
23633;DHT22;11993;48.748;9.166;2023-07-13T07:06:15;23.30;45.30
23633;DHT22;11993;48.748;9.166;2023-07-13T07:08:41;23.40;44.50
23633;DHT22;11993;48.748;9.166;2023-07-13T07:11:20;23.50;43.80
23633;DHT22;11993;48.748;9.166;2023-07-13T07:13:47;23.70;40.70
23633;DHT22;11993;48.748;9.166;2023-07-13T07:16:13;23.90;40.90
23633;DHT22;11993;48.748;9.166;2023-07-13T07:18:38;24.00;41.40
23633;DHT22;11993;48.748;9.166;2023-07-13T07:21:04;24.10;41.10
23633;DHT22;11993;48.748;9.166;2023-07-13T07:23:30;24.20;41.00
23633;DHT22;11993;48.748;9.166;2023-07-13T07:25:55;24.30;40.80
23633;DHT22;11993;48.748;9.166;2023-07-13T07:28:21;24.60;40.10
23633;DHT22;11993;48.748;9.166;2023-07-13T07:30:47;24.60;39.60
23633;DHT22;11993;48.748;9.166;2023-07-13T07:33:14;24.60;40.30
23633;DHT22;11993;48.748;9.166;2023-07-13T07:35:40;24.60;40.60
23633;DHT22;11993;48.748;9.166;2023-07-13T07:38:05;24.90;41.00
23633;DHT22;11993;48.748;9.166;2023-07-13T07:40:31;24.80;40.30
23633;DHT22;11993;48.748;9.166;2023-07-13T07:42:57;24.70;40.20
23633;DHT22;11993;48.748;9.166;2023-07-13T07:45:23;24.80;40.90
23633;DHT22;11993;48.748;9.166;2023-07-13T07:47:49;24.80;40.90
23633;DHT22;11993;48.748;9.166;2023-07-13T07:50:15;25.10;40.30
23633;DHT22;11993;48.748;9.166;2023-07-13T07:52:40;25.10;38.80
23633;DHT22;11993;48.748;9.166;2023-07-13T07:55:07;25.30;39.00
23633;DHT22;11993;48.748;9.166;2023-07-13T07:57:33;25.50;38.70
23633;DHT22;11993;48.748;9.166;2023-07-13T07:59:58;25.50;37.90
23633;DHT22;11993;48.748;9.166;2023-07-13T08:02:25;25.50;38.80
23633;DHT22;11993;48.748;9.166;2023-07-13T08:04:51;25.60;38.50
23633;DHT22;11993;48.748;9.166;2023-07-13T08:07:16;25.60;38.30
23633;DHT22;11993;48.748;9.166;2023-07-13T08:09:42;25.90;38.20
23633;DHT22;11993;48.748;9.166;2023-07-13T08:12:08;25.70;36.80
23633;DHT22;11993;48.748;9.166;2023-07-13T08:14:34;25.80;37.70
23633;DHT22;11993;48.748;9.166;2023-07-13T08:16:59;26.10;37.80
23633;DHT22;11993;48.748;9.166;2023-07-13T08:19:25;26.20;37.10
23633;DHT22;11993;48.748;9.166;2023-07-13T08:21:50;26.20;36.50
23633;DHT22;11993;48.748;9.166;2023-07-13T08:24:16;26.30;34.30
23633;DHT22;11993;48.748;9.166;2023-07-13T08:26:44;26.60;34.80
23633;DHT22;11993;48.748;9.166;2023-07-13T08:29:10;26.80;34.70
23633;DHT22;11993;48.748;9.166;2023-07-13T08:31:35;26.80;35.00
23633;DHT22;11993;48.748;9.166;2023-07-13T08:34:01;26.60;34.70
23633;DHT22;11993;48.748;9.166;2023-07-13T08:36:26;26.80;36.20
23633;DHT22;11993;48.748;9.166;2023-07-13T08:38:53;26.90;35.20
23633;DHT22;11993;48.748;9.166;2023-07-13T08:41:21;27.00;35.50
23633;DHT22;11993;48.748;9.166;2023-07-13T08:43:54;27.00;34.60
23633;DHT22;11993;48.748;9.166;2023-07-13T08:46:58;27.20;35.20
23633;DHT22;11993;48.748;9.166;2023-07-13T08:49:19;27.10;35.60
23633;DHT22;11993;48.748;9.166;2023-07-13T08:51:52;27.10;35.20
23633;DHT22;11993;48.748;9.166;2023-07-13T08:54:38;27.00;35.10
23633;DHT22;11993;48.748;9.166;2023-07-13T08:57:20;27.10;35.20
23633;DHT22;11993;48.748;9.166;2023-07-13T08:59:46;27.20;36.20
23633;DHT22;11993;48.748;9.166;2023-07-13T09:02:40;27.00;35.30
23633;DHT22;11993;48.748;9.166;2023-07-13T09:07:55;27.80;35.70
23633;DHT22;11993;48.748;9.166;2023-07-13T09:13:28;27.30;35.00
23633;DHT22;11993;48.748;9.166;2023-07-13T09:15:59;27.40;35.40
23633;DHT22;11993;48.748;9.166;2023-07-13T09:18:33;27.70;34.50
23633;DHT22;11993;48.748;9.166;2023-07-13T09:21:12;28.10;33.50
23633;DHT22;11993;48.748;9.166;2023-07-13T09:23:39;28.60;32.50
23633;DHT22;11993;48.748;9.166;2023-07-13T09:26:15;27.50;32.30
23633;DHT22;11993;48.748;9.166;2023-07-13T09:28:45;28.00;34.30
23633;DHT22;11993;48.748;9.166;2023-07-13T09:31:21;28.20;34.50
23633;DHT22;11993;48.748;9.166;2023-07-13T09:33:48;28.10;33.40
23633;DHT22;11993;48.748;9.166;2023-07-13T09:36:20;27.00;33.90
23633;DHT22;11993;48.748;9.166;2023-07-13T09:38:47;27.60;33.80
23633;DHT22;11993;48.748;9.166;2023-07-13T09:44:18;27.00;35.50
23633;DHT22;11993;48.748;9.166;2023-07-13T09:46:53;26.80;35.70
23633;DHT22;11993;48.748;9.166;2023-07-13T09:49:27;26.80;36.60
23633;DHT22;11993;48.748;9.166;2023-07-13T09:52:06;27.00;35.20
23633;DHT22;11993;48.748;9.166;2023-07-13T09:54:36;27.90;34.00
23633;DHT22;11993;48.748;9.166;2023-07-13T09:57:08;28.30;34.00
23633;DHT22;11993;48.748;9.166;2023-07-13T09:59:41;28.60;33.10
23633;DHT22;11993;48.748;9.166;2023-07-13T10:02:31;29.10;33.10
23633;DHT22;11993;48.748;9.166;2023-07-13T10:05:03;28.70;31.70
23633;DHT22;11993;48.748;9.166;2023-07-13T10:07:30;28.60;32.80
23633;DHT22;11993;48.748;9.166;2023-07-13T10:09:59;28.00;33.50
23633;DHT22;11993;48.748;9.166;2023-07-13T10:12:30;27.50;33.60
23633;DHT22;11993;48.748;9.166;2023-07-13T10:15:00;27.50;33.80
23633;DHT22;11993;48.748;9.166;2023-07-13T10:17:29;27.60;34.40
23633;DHT22;11993;48.748;9.166;2023-07-13T10:20:01;27.50;34.40
23633;DHT22;11993;48.748;9.166;2023-07-13T10:22:51;27.20;33.50
23633;DHT22;11993;48.748;9.166;2023-07-13T10:25:31;27.20;34.80
23633;DHT22;11993;48.748;9.166;2023-07-13T10:28:20;27.20;34.30
23633;DHT22;11993;48.748;9.166;2023-07-13T10:30:48;27.50;34.00
23633;DHT22;11993;48.748;9.166;2023-07-13T10:33:15;28.40;33.90
23633;DHT22;11993;48.748;9.166;2023-07-13T10:35:43;28.60;33.10
23633;DHT22;11993;48.748;9.166;2023-07-13T10:38:21;28.70;33.90
23633;DHT22;11993;48.748;9.166;2023-07-13T10:41:06;29.10;32.80
23633;DHT22;11993;48.748;9.166;2023-07-13T10:43:47;28.60;32.20
23633;DHT22;11993;48.748;9.166;2023-07-13T10:46:18;27.50;33.30
23633;DHT22;11993;48.748;9.166;2023-07-13T10:48:48;27.40;33.80
23633;DHT22;11993;48.748;9.166;2023-07-13T10:51:17;27.30;33.30
23633;DHT22;11993;48.748;9.166;2023-07-13T10:53:43;26.60;34.00
23633;DHT22;11993;48.748;9.166;2023-07-13T10:56:28;26.30;35.40
23633;DHT22;11993;48.748;9.166;2023-07-13T11:02:09;27.30;34.70
23633;DHT22;11993;48.748;9.166;2023-07-13T11:04:46;27.80;34.80
23633;DHT22;11993;48.748;9.166;2023-07-13T11:07:29;28.40;33.70
23633;DHT22;11993;48.748;9.166;2023-07-13T11:09:57;28.30;33.90
23633;DHT22;11993;48.748;9.166;2023-07-13T11:22:49;30.20;31.20
23633;DHT22;11993;48.748;9.166;2023-07-13T11:30:49;28.30;34.00
23633;DHT22;11993;48.748;9.166;2023-07-13T11:33:49;28.80;33.50
23633;DHT22;11993;48.748;9.166;2023-07-13T11:36:18;29.30;33.00
23633;DHT22;11993;48.748;9.166;2023-07-13T11:39:11;30.00;32.30
23633;DHT22;11993;48.748;9.166;2023-07-13T11:41:44;30.10;31.80
23633;DHT22;11993;48.748;9.166;2023-07-13T11:44:18;29.60;32.90
23633;DHT22;11993;48.748;9.166;2023-07-13T11:46:46;30.30;32.40
23633;DHT22;11993;48.748;9.166;2023-07-13T11:49:15;30.50;31.00
23633;DHT22;11993;48.748;9.166;2023-07-13T11:51:41;30.70;30.90
23633;DHT22;11993;48.748;9.166;2023-07-13T11:54:23;29.80;30.60
23633;DHT22;11993;48.748;9.166;2023-07-13T11:56:49;29.70;31.90
23633;DHT22;11993;48.748;9.166;2023-07-13T11:59:15;29.90;32.40
23633;DHT22;11993;48.748;9.166;2023-07-13T12:01:51;29.20;33.40
23633;DHT22;11993;48.748;9.166;2023-07-13T12:04:27;29.00;33.60
23633;DHT22;11993;48.748;9.166;2023-07-13T12:06:57;28.70;33.50
23633;DHT22;11993;48.748;9.166;2023-07-13T12:09:26;28.70;33.10
23633;DHT22;11993;48.748;9.166;2023-07-13T12:11:53;29.00;33.70
23633;DHT22;11993;48.748;9.166;2023-07-13T12:14:19;29.10;33.50
23633;DHT22;11993;48.748;9.166;2023-07-13T12:16:46;29.50;33.20
23633;DHT22;11993;48.748;9.166;2023-07-13T12:19:23;30.30;31.10
23633;DHT22;11993;48.748;9.166;2023-07-13T12:21:52;30.60;31.80
23633;DHT22;11993;48.748;9.166;2023-07-13T12:24:19;30.80;31.50
23633;DHT22;11993;48.748;9.166;2023-07-13T12:27:00;31.00;32.00
23633;DHT22;11993;48.748;9.166;2023-07-13T12:29:27;31.00;30.50
23633;DHT22;11993;48.748;9.166;2023-07-13T12:31:52;30.80;30.80
23633;DHT22;11993;48.748;9.166;2023-07-13T12:34:20;31.00;29.70
23633;DHT22;11993;48.748;9.166;2023-07-13T12:36:58;31.30;29.20
23633;DHT22;11993;48.748;9.166;2023-07-13T12:39:38;31.00;30.00
23633;DHT22;11993;48.748;9.166;2023-07-13T12:42:24;30.30;29.30
23633;DHT22;11993;48.748;9.166;2023-07-13T12:44:57;29.60;31.00
23633;DHT22;11993;48.748;9.166;2023-07-13T12:47:24;29.10;32.20
23633;DHT22;11993;48.748;9.166;2023-07-13T12:49:58;29.60;32.50
23633;DHT22;11993;48.748;9.166;2023-07-13T12:52:34;30.40;30.40
23633;DHT22;11993;48.748;9.166;2023-07-13T12:55:10;31.10;29.20
23633;DHT22;11993;48.748;9.166;2023-07-13T12:58:02;31.30;28.20
23633;DHT22;11993;48.748;9.166;2023-07-13T13:00:31;31.80;28.50
23633;DHT22;11993;48.748;9.166;2023-07-13T13:03:30;31.80;27.70
23633;DHT22;11993;48.748;9.166;2023-07-13T13:06:03;31.60;28.70
23633;DHT22;11993;48.748;9.166;2023-07-13T13:08:32;31.60;29.00
23633;DHT22;11993;48.748;9.166;2023-07-13T13:10:58;31.10;28.40
23633;DHT22;11993;48.748;9.166;2023-07-13T13:13:23;30.60;28.40
23633;DHT22;11993;48.748;9.166;2023-07-13T13:15:50;31.00;29.40
23633;DHT22;11993;48.748;9.166;2023-07-13T13:18:20;31.10;29.10
23633;DHT22;11993;48.748;9.166;2023-07-13T13:20:47;31.40;28.10
23633;DHT22;11993;48.748;9.166;2023-07-13T13:23:14;31.50;28.00
23633;DHT22;11993;48.748;9.166;2023-07-13T13:25:41;31.30;28.50
23633;DHT22;11993;48.748;9.166;2023-07-13T13:28:16;30.90;28.80
23633;DHT22;11993;48.748;9.166;2023-07-13T13:30:43;30.60;29.60
23633;DHT22;11993;48.748;9.166;2023-07-13T13:33:12;30.70;29.60
23633;DHT22;11993;48.748;9.166;2023-07-13T13:35:38;31.00;28.80
23633;DHT22;11993;48.748;9.166;2023-07-13T13:38:12;31.20;28.50
23633;DHT22;11993;48.748;9.166;2023-07-13T13:40:40;30.90;28.40
23633;DHT22;11993;48.748;9.166;2023-07-13T13:45:40;31.00;28.40
23633;DHT22;11993;48.748;9.166;2023-07-13T13:48:13;31.00;28.10
23633;DHT22;11993;48.748;9.166;2023-07-13T13:50:39;30.70;28.70
23633;DHT22;11993;48.748;9.166;2023-07-13T13:53:04;30.40;29.50
23633;DHT22;11993;48.748;9.166;2023-07-13T13:55:30;29.90;30.60
23633;DHT22;11993;48.748;9.166;2023-07-13T13:57:55;29.40;30.90
23633;DHT22;11993;48.748;9.166;2023-07-13T14:00:21;29.50;30.50
23633;DHT22;11993;48.748;9.166;2023-07-13T14:02:48;29.50;30.30
23633;DHT22;11993;48.748;9.166;2023-07-13T14:05:25;29.50;30.20
23633;DHT22;11993;48.748;9.166;2023-07-13T14:07:54;29.50;29.60
23633;DHT22;11993;48.748;9.166;2023-07-13T14:10:21;29.70;30.60
23633;DHT22;11993;48.748;9.166;2023-07-13T14:12:51;29.30;30.90
23633;DHT22;11993;48.748;9.166;2023-07-13T14:17:50;28.70;31.50
23633;DHT22;11993;48.748;9.166;2023-07-13T14:20:17;29.00;30.80
23633;DHT22;11993;48.748;9.166;2023-07-13T14:22:43;29.10;29.80
23633;DHT22;11993;48.748;9.166;2023-07-13T14:25:11;29.40;30.50
23633;DHT22;11993;48.748;9.166;2023-07-13T14:27:38;29.50;30.50
23633;DHT22;11993;48.748;9.166;2023-07-13T14:30:15;29.20;31.20
23633;DHT22;11993;48.748;9.166;2023-07-13T14:32:41;29.10;31.50
23633;DHT22;11993;48.748;9.166;2023-07-13T14:35:13;28.60;32.00
23633;DHT22;11993;48.748;9.166;2023-07-13T14:37:40;28.60;32.50
23633;DHT22;11993;48.748;9.166;2023-07-13T14:40:32;28.20;32.60
23633;DHT22;11993;48.748;9.166;2023-07-13T14:42:58;28.30;32.20
23633;DHT22;11993;48.748;9.166;2023-07-13T14:45:24;28.70;31.20
23633;DHT22;11993;48.748;9.166;2023-07-13T14:47:51;29.10;30.60
23633;DHT22;11993;48.748;9.166;2023-07-13T14:50:19;29.10;31.10
23633;DHT22;11993;48.748;9.166;2023-07-13T14:52:46;29.20;31.10
23633;DHT22;11993;48.748;9.166;2023-07-13T14:55:14;29.30;31.20
23633;DHT22;11993;48.748;9.166;2023-07-13T14:57:40;29.40;31.40
23633;DHT22;11993;48.748;9.166;2023-07-13T15:00:17;29.30;30.60
23633;DHT22;11993;48.748;9.166;2023-07-13T15:02:52;29.40;30.50
23633;DHT22;11993;48.748;9.166;2023-07-13T15:05:21;29.10;30.80
23633;DHT22;11993;48.748;9.166;2023-07-13T15:07:50;29.10;31.00
23633;DHT22;11993;48.748;9.166;2023-07-13T15:10:19;29.10;30.90
23633;DHT22;11993;48.748;9.166;2023-07-13T15:12:45;29.00;31.70
23633;DHT22;11993;48.748;9.166;2023-07-13T15:15:11;28.60;31.50
23633;DHT22;11993;48.748;9.166;2023-07-13T15:17:41;28.60;32.00
23633;DHT22;11993;48.748;9.166;2023-07-13T15:20:29;28.70;31.70
23633;DHT22;11993;48.748;9.166;2023-07-13T15:22:56;28.80;31.40
23633;DHT22;11993;48.748;9.166;2023-07-13T15:25:24;28.70;31.30
23633;DHT22;11993;48.748;9.166;2023-07-13T15:27:50;28.50;32.00
23633;DHT22;11993;48.748;9.166;2023-07-13T15:30:16;28.10;32.80
23633;DHT22;11993;48.748;9.166;2023-07-13T15:32:42;28.30;32.80
23633;DHT22;11993;48.748;9.166;2023-07-13T15:35:20;28.30;32.80
23633;DHT22;11993;48.748;9.166;2023-07-13T15:37:47;27.80;33.00
23633;DHT22;11993;48.748;9.166;2023-07-13T15:40:14;27.70;33.60
23633;DHT22;11993;48.748;9.166;2023-07-13T15:42:40;28.00;32.90
23633;DHT22;11993;48.748;9.166;2023-07-13T15:45:16;27.80;33.70
23633;DHT22;11993;48.748;9.166;2023-07-13T15:47:43;27.80;33.50
23633;DHT22;11993;48.748;9.166;2023-07-13T15:50:14;28.00;33.00
23633;DHT22;11993;48.748;9.166;2023-07-13T15:52:40;28.10;32.70
23633;DHT22;11993;48.748;9.166;2023-07-13T15:55:10;27.90;32.70
23633;DHT22;11993;48.748;9.166;2023-07-13T15:57:37;27.90;32.70
23633;DHT22;11993;48.748;9.166;2023-07-13T16:00:23;27.90;32.80
23633;DHT22;11993;48.748;9.166;2023-07-13T16:02:50;27.90;32.40
23633;DHT22;11993;48.748;9.166;2023-07-13T16:05:17;27.70;33.20
23633;DHT22;11993;48.748;9.166;2023-07-13T16:07:45;27.60;33.20
23633;DHT22;11993;48.748;9.166;2023-07-13T16:10:38;27.50;32.90
23633;DHT22;11993;48.748;9.166;2023-07-13T16:13:10;27.50;33.10